sensor_id;sensor_type;location;lat;lon;timestamp;P1;durP1;ratioP1;P2;durP2;ratioP2
19219;SDS011;9744;49.364;7.484;2023-05-29T00:01:37;8.27;;;3.30;;
19219;SDS011;9744;49.364;7.484;2023-05-29T00:04:06;6.45;;;3.38;;
19219;SDS011;9744;49.364;7.484;2023-05-29T00:06:33;6.18;;;3.38;;
19219;SDS011;9744;49.364;7.484;2023-05-29T00:09:01;4.93;;;3.63;;
19219;SDS011;9744;49.364;7.484;2023-05-29T00:11:30;5.43;;;3.10;;
19219;SDS011;9744;49.364;7.484;2023-05-29T00:13:58;4.78;;;3.47;;
19219;SDS011;9744;49.364;7.484;2023-05-29T00:16:26;6.45;;;3.38;;
19219;SDS011;9744;49.364;7.484;2023-05-29T00:18:54;8.75;;;3.47;;
19219;SDS011;9744;49.364;7.484;2023-05-29T00:21:23;9.30;;;3.85;;
19219;SDS011;9744;49.364;7.484;2023-05-29T00:23:50;4.68;;;3.10;;
19219;SDS011;9744;49.364;7.484;2023-05-29T00:26:18;7.22;;;3.50;;
19219;SDS011;9744;49.364;7.484;2023-05-29T00:28:53;5.47;;;3.20;;
19219;SDS011;9744;49.364;7.484;2023-05-29T00:31:20;5.82;;;3.35;;
19219;SDS011;9744;49.364;7.484;2023-05-29T00:33:49;6.28;;;3.25;;
19219;SDS011;9744;49.364;7.484;2023-05-29T00:36:17;6.82;;;3.53;;
19219;SDS011;9744;49.364;7.484;2023-05-29T00:38:44;8.20;;;3.55;;
19219;SDS011;9744;49.364;7.484;2023-05-29T00:41:13;7.20;;;3.42;;
19219;SDS011;9744;49.364;7.484;2023-05-29T00:43:40;5.95;;;3.53;;
19219;SDS011;9744;49.364;7.484;2023-05-29T00:46:09;6.00;;;3.58;;
19219;SDS011;9744;49.364;7.484;2023-05-29T00:48:39;6.85;;;3.33;;
19219;SDS011;9744;49.364;7.484;2023-05-29T00:51:06;6.78;;;3.92;;
19219;SDS011;9744;49.364;7.484;2023-05-29T00:53:36;5.55;;;3.40;;
19219;SDS011;9744;49.364;7.484;2023-05-29T00:56:04;7.25;;;3.42;;
19219;SDS011;9744;49.364;7.484;2023-05-29T00:58:32;8.75;;;3.88;;
19219;SDS011;9744;49.364;7.484;2023-05-29T01:01:00;6.22;;;3.88;;
19219;SDS011;9744;49.364;7.484;2023-05-29T01:03:30;6.63;;;4.20;;
19219;SDS011;9744;49.364;7.484;2023-05-29T01:05:58;6.57;;;3.83;;
19219;SDS011;9744;49.364;7.484;2023-05-29T01:08:26;5.32;;;3.78;;
19219;SDS011;9744;49.364;7.484;2023-05-29T01:10:54;7.30;;;3.95;;
19219;SDS011;9744;49.364;7.484;2023-05-29T01:13:27;6.07;;;3.80;;
19219;SDS011;9744;49.364;7.484;2023-05-29T01:16:00;7.13;;;3.45;;
19219;SDS011;9744;49.364;7.484;2023-05-29T01:18:37;8.20;;;4.05;;
19219;SDS011;9744;49.364;7.484;2023-05-29T01:21:10;7.07;;;4.20;;
19219;SDS011;9744;49.364;7.484;2023-05-29T01:23:51;8.13;;;3.90;;
19219;SDS011;9744;49.364;7.484;2023-05-29T01:29:34;7.47;;;3.88;;
19219;SDS011;9744;49.364;7.484;2023-05-29T01:32:04;7.60;;;3.55;;
19219;SDS011;9744;49.364;7.484;2023-05-29T01:34:31;6.93;;;3.83;;
19219;SDS011;9744;49.364;7.484;2023-05-29T01:36:59;7.45;;;3.97;;
19219;SDS011;9744;49.364;7.484;2023-05-29T01:39:28;10.52;;;4.00;;
19219;SDS011;9744;49.364;7.484;2023-05-29T01:41:59;5.13;;;3.22;;
19219;SDS011;9744;49.364;7.484;2023-05-29T01:44:27;7.53;;;3.78;;
19219;SDS011;9744;49.364;7.484;2023-05-29T01:46:56;5.50;;;3.25;;
19219;SDS011;9744;49.364;7.484;2023-05-29T01:49:25;7.20;;;3.75;;
19219;SDS011;9744;49.364;7.484;2023-05-29T01:51:54;7.40;;;3.58;;
19219;SDS011;9744;49.364;7.484;2023-05-29T01:54:22;5.82;;;3.22;;
19219;SDS011;9744;49.364;7.484;2023-05-29T01:56:50;5.30;;;3.30;;
19219;SDS011;9744;49.364;7.484;2023-05-29T01:59:27;7.40;;;3.20;;
19219;SDS011;9744;49.364;7.484;2023-05-29T02:01:55;5.50;;;3.25;;
19219;SDS011;9744;49.364;7.484;2023-05-29T02:04:22;7.30;;;3.50;;
19219;SDS011;9744;49.364;7.484;2023-05-29T02:06:50;5.88;;;3.38;;
19219;SDS011;9744;49.364;7.484;2023-05-29T02:09:18;6.03;;;3.25;;
19219;SDS011;9744;49.364;7.484;2023-05-29T02:11:45;8.10;;;3.30;;
19219;SDS011;9744;49.364;7.484;2023-05-29T02:14:13;6.05;;;3.38;;
19219;SDS011;9744;49.364;7.484;2023-05-29T02:16:42;11.10;;;3.38;;
19219;SDS011;9744;49.364;7.484;2023-05-29T02:19:09;7.05;;;3.13;;
19219;SDS011;9744;49.364;7.484;2023-05-29T02:21:37;5.65;;;3.38;;
19219;SDS011;9744;49.364;7.484;2023-05-29T02:24:05;11.13;;;3.72;;
19219;SDS011;9744;49.364;7.484;2023-05-29T02:26:33;10.20;;;3.90;;
19219;SDS011;9744;49.364;7.484;2023-05-29T02:29:02;6.18;;;2.97;;
19219;SDS011;9744;49.364;7.484;2023-05-29T02:31:32;8.07;;;3.20;;
19219;SDS011;9744;49.364;7.484;2023-05-29T02:34:02;8.70;;;3.40;;
19219;SDS011;9744;49.364;7.484;2023-05-29T02:36:30;5.53;;;3.13;;
19219;SDS011;9744;49.364;7.484;2023-05-29T02:38:57;6.68;;;3.20;;
19219;SDS011;9744;49.364;7.484;2023-05-29T02:41:24;7.60;;;3.28;;
19219;SDS011;9744;49.364;7.484;2023-05-29T02:43:52;5.97;;;3.38;;
19219;SDS011;9744;49.364;7.484;2023-05-29T02:46:20;6.80;;;3.50;;
19219;SDS011;9744;49.364;7.484;2023-05-29T02:48:48;6.95;;;3.30;;
19219;SDS011;9744;49.364;7.484;2023-05-29T02:51:17;6.50;;;3.28;;
19219;SDS011;9744;49.364;7.484;2023-05-29T02:53:44;6.85;;;3.08;;
19219;SDS011;9744;49.364;7.484;2023-05-29T02:56:11;4.80;;;2.85;;
19219;SDS011;9744;49.364;7.484;2023-05-29T02:58:41;6.13;;;3.35;;
19219;SDS011;9744;49.364;7.484;2023-05-29T03:01:08;5.32;;;3.25;;
19219;SDS011;9744;49.364;7.484;2023-05-29T03:03:36;7.90;;;3.20;;
19219;SDS011;9744;49.364;7.484;2023-05-29T03:06:05;5.22;;;3.20;;
19219;SDS011;9744;49.364;7.484;2023-05-29T03:08:34;6.35;;;3.30;;
19219;SDS011;9744;49.364;7.484;2023-05-29T03:11:05;5.78;;;3.63;;
19219;SDS011;9744;49.364;7.484;2023-05-29T03:13:34;7.10;;;3.38;;
19219;SDS011;9744;49.364;7.484;2023-05-29T03:16:05;6.43;;;3.35;;
19219;SDS011;9744;49.364;7.484;2023-05-29T03:18:34;7.65;;;3.63;;
19219;SDS011;9744;49.364;7.484;2023-05-29T03:21:01;8.02;;;3.60;;
19219;SDS011;9744;49.364;7.484;2023-05-29T03:23:32;8.07;;;3.30;;
19219;SDS011;9744;49.364;7.484;2023-05-29T03:26:01;7.68;;;3.50;;
19219;SDS011;9744;49.364;7.484;2023-05-29T03:28:30;6.13;;;3.08;;
19219;SDS011;9744;49.364;7.484;2023-05-29T03:31:01;6.70;;;3.25;;
19219;SDS011;9744;49.364;7.484;2023-05-29T03:33:28;8.40;;;3.30;;
19219;SDS011;9744;49.364;7.484;2023-05-29T03:36:09;4.90;;;3.00;;
19219;SDS011;9744;49.364;7.484;2023-05-29T03:38:39;8.35;;;3.25;;
19219;SDS011;9744;49.364;7.484;2023-05-29T03:41:06;6.95;;;3.30;;
19219;SDS011;9744;49.364;7.484;2023-05-29T03:43:33;6.45;;;3.97;;
19219;SDS011;9744;49.364;7.484;2023-05-29T03:46:01;8.80;;;3.63;;
19219;SDS011;9744;49.364;7.484;2023-05-29T03:48:30;10.07;;;3.45;;
19219;SDS011;9744;49.364;7.484;2023-05-29T03:50:57;9.65;;;3.30;;
19219;SDS011;9744;49.364;7.484;2023-05-29T03:53:30;7.20;;;3.28;;
19219;SDS011;9744;49.364;7.484;2023-05-29T03:55:59;12.55;;;3.20;;
19219;SDS011;9744;49.364;7.484;2023-05-29T03:58:26;9.52;;;3.40;;
19219;SDS011;9744;49.364;7.484;2023-05-29T04:00:56;8.10;;;3.40;;
19219;SDS011;9744;49.364;7.484;2023-05-29T04:03:24;6.45;;;3.22;;
19219;SDS011;9744;49.364;7.484;2023-05-29T04:05:51;6.93;;;3.40;;
19219;SDS011;9744;49.364;7.484;2023-05-29T04:08:20;6.07;;;3.50;;
19219;SDS011;9744;49.364;7.484;2023-05-29T04:10:48;5.20;;;3.42;;
19219;SDS011;9744;49.364;7.484;2023-05-29T04:13:21;7.55;;;3.38;;
19219;SDS011;9744;49.364;7.484;2023-05-29T04:15:48;5.65;;;3.55;;
19219;SDS011;9744;49.364;7.484;2023-05-29T04:18:18;6.95;;;3.40;;
19219;SDS011;9744;49.364;7.484;2023-05-29T04:20:45;7.40;;;3.42;;
19219;SDS011;9744;49.364;7.484;2023-05-29T04:23:13;7.07;;;3.38;;
19219;SDS011;9744;49.364;7.484;2023-05-29T04:25:42;9.75;;;3.33;;
19219;SDS011;9744;49.364;7.484;2023-05-29T04:28:11;8.40;;;3.05;;
19219;SDS011;9744;49.364;7.484;2023-05-29T04:30:40;8.45;;;3.28;;
19219;SDS011;9744;49.364;7.484;2023-05-29T04:33:08;9.05;;;3.58;;
19219;SDS011;9744;49.364;7.484;2023-05-29T04:35:40;5.93;;;3.20;;
19219;SDS011;9744;49.364;7.484;2023-05-29T04:38:10;5.22;;;2.90;;
19219;SDS011;9744;49.364;7.484;2023-05-29T04:40:38;4.55;;;2.83;;
19219;SDS011;9744;49.364;7.484;2023-05-29T04:43:06;6.88;;;3.58;;
19219;SDS011;9744;49.364;7.484;2023-05-29T04:45:50;7.68;;;3.40;;
19219;SDS011;9744;49.364;7.484;2023-05-29T04:48:18;6.05;;;3.08;;
19219;SDS011;9744;49.364;7.484;2023-05-29T04:50:46;7.68;;;3.40;;
19219;SDS011;9744;49.364;7.484;2023-05-29T04:53:14;6.95;;;3.40;;
19219;SDS011;9744;49.364;7.484;2023-05-29T04:55:41;5.20;;;3.20;;
19219;SDS011;9744;49.364;7.484;2023-05-29T04:58:09;6.72;;;3.42;;
19219;SDS011;9744;49.364;7.484;2023-05-29T05:00:38;5.93;;;3.17;;
19219;SDS011;9744;49.364;7.484;2023-05-29T05:03:07;8.32;;;3.50;;
19219;SDS011;9744;49.364;7.484;2023-05-29T05:05:35;7.45;;;3.47;;
19219;SDS011;9744;49.364;7.484;2023-05-29T05:08:03;9.70;;;3.78;;
19219;SDS011;9744;49.364;7.484;2023-05-29T05:10:31;6.40;;;3.25;;
19219;SDS011;9744;49.364;7.484;2023-05-29T05:12:58;6.63;;;3.80;;
19219;SDS011;9744;49.364;7.484;2023-05-29T05:15:28;8.60;;;4.47;;
19219;SDS011;9744;49.364;7.484;2023-05-29T05:17:55;13.10;;;7.70;;
19219;SDS011;9744;49.364;7.484;2023-05-29T05:20:24;11.55;;;6.78;;
19219;SDS011;9744;49.364;7.484;2023-05-29T05:22:56;17.02;;;9.35;;
19219;SDS011;9744;49.364;7.484;2023-05-29T05:25:25;15.25;;;8.95;;
19219;SDS011;9744;49.364;7.484;2023-05-29T05:27:52;13.57;;;8.45;;
19219;SDS011;9744;49.364;7.484;2023-05-29T05:30:21;14.82;;;7.70;;
19219;SDS011;9744;49.364;7.484;2023-05-29T05:32:48;12.40;;;6.78;;
19219;SDS011;9744;49.364;7.484;2023-05-29T05:35:17;13.18;;;6.63;;
19219;SDS011;9744;49.364;7.484;2023-05-29T05:37:48;10.52;;;6.00;;
19219;SDS011;9744;49.364;7.484;2023-05-29T05:40:17;13.13;;;6.25;;
19219;SDS011;9744;49.364;7.484;2023-05-29T05:42:53;8.63;;;5.07;;
19219;SDS011;9744;49.364;7.484;2023-05-29T05:45:32;9.68;;;5.00;;
19219;SDS011;9744;49.364;7.484;2023-05-29T05:47:59;6.75;;;3.70;;
19219;SDS011;9744;49.364;7.484;2023-05-29T05:50:27;12.77;;;3.85;;
19219;SDS011;9744;49.364;7.484;2023-05-29T05:52:55;6.82;;;4.38;;
19219;SDS011;9744;49.364;7.484;2023-05-29T05:55:25;9.32;;;4.75;;
19219;SDS011;9744;49.364;7.484;2023-05-29T05:57:53;8.73;;;5.05;;
19219;SDS011;9744;49.364;7.484;2023-05-29T06:00:22;8.30;;;4.20;;
19219;SDS011;9744;49.364;7.484;2023-05-29T06:02:55;10.57;;;4.10;;
19219;SDS011;9744;49.364;7.484;2023-05-29T06:05:55;6.85;;;4.28;;
19219;SDS011;9744;49.364;7.484;2023-05-29T06:08:24;8.95;;;3.95;;
19219;SDS011;9744;49.364;7.484;2023-05-29T06:10:52;7.95;;;4.65;;
19219;SDS011;9744;49.364;7.484;2023-05-29T06:13:19;10.15;;;4.30;;
19219;SDS011;9744;49.364;7.484;2023-05-29T06:15:51;8.52;;;4.70;;
19219;SDS011;9744;49.364;7.484;2023-05-29T06:18:19;5.50;;;3.50;;
19219;SDS011;9744;49.364;7.484;2023-05-29T06:20:47;7.60;;;3.65;;
19219;SDS011;9744;49.364;7.484;2023-05-29T06:23:14;7.95;;;3.60;;
19219;SDS011;9744;49.364;7.484;2023-05-29T06:25:43;6.63;;;3.35;;
19219;SDS011;9744;49.364;7.484;2023-05-29T06:28:10;7.18;;;3.45;;
19219;SDS011;9744;49.364;7.484;2023-05-29T06:30:38;6.32;;;3.50;;
19219;SDS011;9744;49.364;7.484;2023-05-29T06:33:07;6.72;;;3.20;;
19219;SDS011;9744;49.364;7.484;2023-05-29T06:35:37;8.02;;;3.38;;
19219;SDS011;9744;49.364;7.484;2023-05-29T06:38:05;7.13;;;3.10;;
19219;SDS011;9744;49.364;7.484;2023-05-29T06:40:32;5.25;;;3.08;;
19219;SDS011;9744;49.364;7.484;2023-05-29T06:43:02;7.53;;;4.03;;
19219;SDS011;9744;49.364;7.484;2023-05-29T06:45:39;6.80;;;3.45;;
19219;SDS011;9744;49.364;7.484;2023-05-29T06:48:08;6.25;;;3.80;;
19219;SDS011;9744;49.364;7.484;2023-05-29T06:50:37;7.68;;;4.28;;
19219;SDS011;9744;49.364;7.484;2023-05-29T06:53:25;6.85;;;3.80;;
19219;SDS011;9744;49.364;7.484;2023-05-29T06:55:55;6.40;;;3.78;;
19219;SDS011;9744;49.364;7.484;2023-05-29T06:58:25;6.43;;;4.03;;
19219;SDS011;9744;49.364;7.484;2023-05-29T07:04:26;6.35;;;3.78;;
19219;SDS011;9744;49.364;7.484;2023-05-29T07:06:53;6.70;;;4.05;;
19219;SDS011;9744;49.364;7.484;2023-05-29T07:09:23;6.47;;;3.15;;
19219;SDS011;9744;49.364;7.484;2023-05-29T07:11:51;7.05;;;2.63;;
19219;SDS011;9744;49.364;7.484;2023-05-29T07:14:20;5.82;;;2.78;;
19219;SDS011;9744;49.364;7.484;2023-05-29T07:16:48;5.57;;;3.05;;
19219;SDS011;9744;49.364;7.484;2023-05-29T07:19:16;6.15;;;3.50;;
19219;SDS011;9744;49.364;7.484;2023-05-29T07:21:43;5.63;;;3.17;;
19219;SDS011;9744;49.364;7.484;2023-05-29T07:24:12;5.80;;;3.13;;
19219;SDS011;9744;49.364;7.484;2023-05-29T07:26:39;6.55;;;3.20;;
19219;SDS011;9744;49.364;7.484;2023-05-29T07:29:06;5.25;;;3.03;;
19219;SDS011;9744;49.364;7.484;2023-05-29T07:31:36;8.18;;;3.00;;
19219;SDS011;9744;49.364;7.484;2023-05-29T07:34:05;5.43;;;2.90;;
19219;SDS011;9744;49.364;7.484;2023-05-29T07:36:33;7.47;;;3.35;;
19219;SDS011;9744;49.364;7.484;2023-05-29T07:39:04;5.75;;;2.88;;
19219;SDS011;9744;49.364;7.484;2023-05-29T07:41:33;6.03;;;3.15;;
19219;SDS011;9744;49.364;7.484;2023-05-29T07:44:02;6.30;;;3.13;;
19219;SDS011;9744;49.364;7.484;2023-05-29T07:46:31;5.13;;;2.25;;
19219;SDS011;9744;49.364;7.484;2023-05-29T07:49:21;6.80;;;4.72;;
19219;SDS011;9744;49.364;7.484;2023-05-29T07:51:49;7.00;;;3.80;;
19219;SDS011;9744;49.364;7.484;2023-05-29T07:54:18;4.90;;;3.25;;
19219;SDS011;9744;49.364;7.484;2023-05-29T07:56:46;7.68;;;3.83;;
19219;SDS011;9744;49.364;7.484;2023-05-29T07:59:14;8.55;;;2.92;;
19219;SDS011;9744;49.364;7.484;2023-05-29T08:01:42;7.97;;;3.20;;
19219;SDS011;9744;49.364;7.484;2023-05-29T08:04:27;4.60;;;2.80;;
19219;SDS011;9744;49.364;7.484;2023-05-29T08:07:00;7.18;;;3.25;;
19219;SDS011;9744;49.364;7.484;2023-05-29T08:09:29;6.03;;;2.67;;
19219;SDS011;9744;49.364;7.484;2023-05-29T08:11:57;3.83;;;2.67;;
19219;SDS011;9744;49.364;7.484;2023-05-29T08:14:25;5.03;;;2.83;;
19219;SDS011;9744;49.364;7.484;2023-05-29T08:16:54;10.80;;;3.40;;
19219;SDS011;9744;49.364;7.484;2023-05-29T08:19:23;8.73;;;3.00;;
19219;SDS011;9744;49.364;7.484;2023-05-29T08:21:51;8.40;;;2.70;;
19219;SDS011;9744;49.364;7.484;2023-05-29T08:24:19;5.10;;;3.10;;
19219;SDS011;9744;49.364;7.484;2023-05-29T08:26:46;9.63;;;2.47;;
19219;SDS011;9744;49.364;7.484;2023-05-29T08:29:14;5.40;;;2.70;;
19219;SDS011;9744;49.364;7.484;2023-05-29T08:31:42;4.32;;;2.53;;
19219;SDS011;9744;49.364;7.484;2023-05-29T08:34:09;4.90;;;2.55;;
19219;SDS011;9744;49.364;7.484;2023-05-29T08:36:36;7.38;;;3.05;;
19219;SDS011;9744;49.364;7.484;2023-05-29T08:39:07;7.50;;;4.13;;
19219;SDS011;9744;49.364;7.484;2023-05-29T08:41:38;5.40;;;2.85;;
19219;SDS011;9744;49.364;7.484;2023-05-29T08:44:13;10.07;;;2.88;;
19219;SDS011;9744;49.364;7.484;2023-05-29T08:46:42;6.07;;;3.30;;
19219;SDS011;9744;49.364;7.484;2023-05-29T08:49:12;6.85;;;3.10;;
19219;SDS011;9744;49.364;7.484;2023-05-29T08:51:45;6.78;;;2.95;;
19219;SDS011;9744;49.364;7.484;2023-05-29T08:56:48;6.13;;;2.80;;
19219;SDS011;9744;49.364;7.484;2023-05-29T08:59:16;7.03;;;2.75;;
19219;SDS011;9744;49.364;7.484;2023-05-29T09:01:44;8.73;;;2.60;;
19219;SDS011;9744;49.364;7.484;2023-05-29T09:04:12;2.95;;;2.13;;
19219;SDS011;9744;49.364;7.484;2023-05-29T09:06:40;4.40;;;2.60;;
19219;SDS011;9744;49.364;7.484;2023-05-29T09:09:08;4.15;;;2.50;;
19219;SDS011;9744;49.364;7.484;2023-05-29T09:11:36;7.22;;;2.58;;
19219;SDS011;9744;49.364;7.484;2023-05-29T09:14:04;6.53;;;2.60;;
19219;SDS011;9744;49.364;7.484;2023-05-29T09:16:31;7.47;;;2.45;;
19219;SDS011;9744;49.364;7.484;2023-05-29T09:19:05;5.68;;;2.83;;
19219;SDS011;9744;49.364;7.484;2023-05-29T09:21:33;4.75;;;2.58;;
19219;SDS011;9744;49.364;7.484;2023-05-29T09:24:05;6.63;;;2.63;;
19219;SDS011;9744;49.364;7.484;2023-05-29T09:26:32;3.58;;;2.22;;
19219;SDS011;9744;49.364;7.484;2023-05-29T09:29:01;6.13;;;2.40;;
19219;SDS011;9744;49.364;7.484;2023-05-29T09:31:30;8.05;;;2.83;;
19219;SDS011;9744;49.364;7.484;2023-05-29T09:34:10;8.93;;;5.80;;
19219;SDS011;9744;49.364;7.484;2023-05-29T09:36:38;6.47;;;3.30;;
19219;SDS011;9744;49.364;7.484;2023-05-29T09:39:06;6.35;;;3.63;;
19219;SDS011;9744;49.364;7.484;2023-05-29T09:41:36;5.38;;;3.30;;
19219;SDS011;9744;49.364;7.484;2023-05-29T09:44:12;6.07;;;2.92;;
19219;SDS011;9744;49.364;7.484;2023-05-29T09:46:40;5.95;;;3.28;;
19219;SDS011;9744;49.364;7.484;2023-05-29T09:49:09;5.72;;;2.85;;
19219;SDS011;9744;49.364;7.484;2023-05-29T09:51:38;4.95;;;2.92;;
19219;SDS011;9744;49.364;7.484;2023-05-29T09:54:13;4.00;;;2.60;;
19219;SDS011;9744;49.364;7.484;2023-05-29T09:56:44;6.50;;;3.22;;
19219;SDS011;9744;49.364;7.484;2023-05-29T09:59:15;6.65;;;3.05;;
19219;SDS011;9744;49.364;7.484;2023-05-29T10:01:43;4.03;;;2.40;;
19219;SDS011;9744;49.364;7.484;2023-05-29T10:04:11;5.88;;;2.58;;
19219;SDS011;9744;49.364;7.484;2023-05-29T10:06:41;4.20;;;2.60;;
19219;SDS011;9744;49.364;7.484;2023-05-29T10:09:14;5.03;;;2.30;;
19219;SDS011;9744;49.364;7.484;2023-05-29T10:11:44;4.03;;;2.40;;
19219;SDS011;9744;49.364;7.484;2023-05-29T10:14:17;6.88;;;2.75;;
19219;SDS011;9744;49.364;7.484;2023-05-29T10:16:46;5.93;;;2.30;;
19219;SDS011;9744;49.364;7.484;2023-05-29T10:19:18;3.85;;;2.58;;
19219;SDS011;9744;49.364;7.484;2023-05-29T10:21:49;5.70;;;2.45;;
19219;SDS011;9744;49.364;7.484;2023-05-29T10:24:21;4.25;;;2.50;;
19219;SDS011;9744;49.364;7.484;2023-05-29T10:26:49;5.82;;;2.67;;
19219;SDS011;9744;49.364;7.484;2023-05-29T10:29:19;4.05;;;2.55;;
19219;SDS011;9744;49.364;7.484;2023-05-29T10:32:00;9.18;;;2.92;;
19219;SDS011;9744;49.364;7.484;2023-05-29T10:34:37;5.00;;;2.67;;
19219;SDS011;9744;49.364;7.484;2023-05-29T10:37:14;5.38;;;2.72;;
19219;SDS011;9744;49.364;7.484;2023-05-29T10:39:52;5.10;;;2.50;;
19219;SDS011;9744;49.364;7.484;2023-05-29T10:45:09;4.82;;;2.60;;
19219;SDS011;9744;49.364;7.484;2023-05-29T10:47:37;9.20;;;3.03;;
19219;SDS011;9744;49.364;7.484;2023-05-29T10:50:05;3.90;;;2.88;;
19219;SDS011;9744;49.364;7.484;2023-05-29T10:52:33;5.30;;;2.70;;
19219;SDS011;9744;49.364;7.484;2023-05-29T10:55:00;7.55;;;3.10;;
19219;SDS011;9744;49.364;7.484;2023-05-29T10:57:30;5.40;;;2.75;;
19219;SDS011;9744;49.364;7.484;2023-05-29T11:00:05;5.70;;;3.03;;
19219;SDS011;9744;49.364;7.484;2023-05-29T11:02:39;6.97;;;3.22;;
19219;SDS011;9744;49.364;7.484;2023-05-29T11:07:53;8.85;;;3.30;;
19219;SDS011;9744;49.364;7.484;2023-05-29T11:10:43;6.97;;;2.95;;
19219;SDS011;9744;49.364;7.484;2023-05-29T11:13:22;5.88;;;2.67;;
19219;SDS011;9744;49.364;7.484;2023-05-29T11:16:04;7.20;;;2.88;;
19219;SDS011;9744;49.364;7.484;2023-05-29T11:18:42;5.22;;;2.72;;
19219;SDS011;9744;49.364;7.484;2023-05-29T11:21:14;7.43;;;2.90;;
19219;SDS011;9744;49.364;7.484;2023-05-29T11:23:50;4.68;;;2.70;;
19219;SDS011;9744;49.364;7.484;2023-05-29T11:26:19;5.65;;;3.03;;
19219;SDS011;9744;49.364;7.484;2023-05-29T11:28:47;4.68;;;2.85;;
19219;SDS011;9744;49.364;7.484;2023-05-29T11:31:15;5.47;;;3.15;;
19219;SDS011;9744;49.364;7.484;2023-05-29T11:33:47;4.03;;;2.95;;
19219;SDS011;9744;49.364;7.484;2023-05-29T11:36:17;5.03;;;3.00;;
19219;SDS011;9744;49.364;7.484;2023-05-29T11:38:45;9.93;;;3.05;;
19219;SDS011;9744;49.364;7.484;2023-05-29T11:41:13;4.82;;;3.08;;
19219;SDS011;9744;49.364;7.484;2023-05-29T11:43:55;5.38;;;2.63;;
19219;SDS011;9744;49.364;7.484;2023-05-29T11:46:24;9.73;;;2.88;;
19219;SDS011;9744;49.364;7.484;2023-05-29T11:48:55;6.70;;;2.55;;
19219;SDS011;9744;49.364;7.484;2023-05-29T11:51:22;7.70;;;5.25;;
19219;SDS011;9744;49.364;7.484;2023-05-29T11:53:50;7.05;;;3.58;;
19219;SDS011;9744;49.364;7.484;2023-05-29T11:56:23;9.50;;;3.22;;
19219;SDS011;9744;49.364;7.484;2023-05-29T11:58:51;6.82;;;2.92;;
19219;SDS011;9744;49.364;7.484;2023-05-29T12:01:22;4.05;;;2.88;;
19219;SDS011;9744;49.364;7.484;2023-05-29T12:03:50;4.85;;;3.00;;
19219;SDS011;9744;49.364;7.484;2023-05-29T12:06:31;4.35;;;2.50;;
19219;SDS011;9744;49.364;7.484;2023-05-29T12:09:00;5.10;;;2.50;;
19219;SDS011;9744;49.364;7.484;2023-05-29T12:11:32;6.50;;;2.90;;
19219;SDS011;9744;49.364;7.484;2023-05-29T12:14:01;4.70;;;2.45;;
19219;SDS011;9744;49.364;7.484;2023-05-29T12:16:30;5.07;;;2.70;;
19219;SDS011;9744;49.364;7.484;2023-05-29T12:19:00;3.58;;;2.33;;
19219;SDS011;9744;49.364;7.484;2023-05-29T12:21:31;5.90;;;2.60;;
19219;SDS011;9744;49.364;7.484;2023-05-29T12:24:00;3.83;;;2.40;;
19219;SDS011;9744;49.364;7.484;2023-05-29T12:26:27;7.28;;;3.33;;
19219;SDS011;9744;49.364;7.484;2023-05-29T12:28:58;8.40;;;2.90;;
19219;SDS011;9744;49.364;7.484;2023-05-29T12:31:28;10.55;;;2.90;;
19219;SDS011;9744;49.364;7.484;2023-05-29T12:34:00;5.07;;;2.70;;
19219;SDS011;9744;49.364;7.484;2023-05-29T12:36:29;5.03;;;2.80;;
19219;SDS011;9744;49.364;7.484;2023-05-29T12:38:59;6.85;;;2.60;;
19219;SDS011;9744;49.364;7.484;2023-05-29T12:41:34;4.63;;;2.80;;
19219;SDS011;9744;49.364;7.484;2023-05-29T12:44:02;9.00;;;2.60;;
19219;SDS011;9744;49.364;7.484;2023-05-29T12:46:34;4.15;;;2.65;;
19219;SDS011;9744;49.364;7.484;2023-05-29T12:49:11;12.93;;;4.30;;
19219;SDS011;9744;49.364;7.484;2023-05-29T12:51:40;8.13;;;3.38;;
19219;SDS011;9744;49.364;7.484;2023-05-29T12:54:10;4.03;;;2.83;;
19219;SDS011;9744;49.364;7.484;2023-05-29T12:56:38;4.90;;;2.80;;
19219;SDS011;9744;49.364;7.484;2023-05-29T12:59:06;4.93;;;2.53;;
19219;SDS011;9744;49.364;7.484;2023-05-29T13:01:34;4.50;;;2.70;;
19219;SDS011;9744;49.364;7.484;2023-05-29T13:04:01;7.90;;;2.90;;
19219;SDS011;9744;49.364;7.484;2023-05-29T13:06:32;4.82;;;2.60;;
19219;SDS011;9744;49.364;7.484;2023-05-29T13:09:00;7.22;;;3.15;;
19219;SDS011;9744;49.364;7.484;2023-05-29T13:11:29;9.02;;;2.95;;
19219;SDS011;9744;49.364;7.484;2023-05-29T13:13:56;5.80;;;3.08;;
19219;SDS011;9744;49.364;7.484;2023-05-29T13:16:24;4.53;;;2.65;;
19219;SDS011;9744;49.364;7.484;2023-05-29T13:18:51;6.65;;;3.00;;
19219;SDS011;9744;49.364;7.484;2023-05-29T13:21:19;4.10;;;2.80;;
19219;SDS011;9744;49.364;7.484;2023-05-29T13:23:46;5.68;;;2.65;;
19219;SDS011;9744;49.364;7.484;2023-05-29T13:26:14;5.88;;;2.38;;
19219;SDS011;9744;49.364;7.484;2023-05-29T13:28:42;6.75;;;2.60;;
19219;SDS011;9744;49.364;7.484;2023-05-29T13:31:10;6.07;;;2.80;;
19219;SDS011;9744;49.364;7.484;2023-05-29T13:33:37;5.35;;;2.67;;
19219;SDS011;9744;49.364;7.484;2023-05-29T13:36:05;9.45;;;3.10;;
19219;SDS011;9744;49.364;7.484;2023-05-29T13:38:33;5.53;;;2.53;;
19219;SDS011;9744;49.364;7.484;2023-05-29T13:41:00;4.90;;;2.42;;
19219;SDS011;9744;49.364;7.484;2023-05-29T13:43:28;5.15;;;2.95;;
19219;SDS011;9744;49.364;7.484;2023-05-29T13:45:58;4.45;;;2.97;;
19219;SDS011;9744;49.364;7.484;2023-05-29T13:48:26;7.90;;;3.60;;
19219;SDS011;9744;49.364;7.484;2023-05-29T13:50:53;6.57;;;4.75;;
19219;SDS011;9744;49.364;7.484;2023-05-29T13:53:21;8.35;;;4.85;;
19219;SDS011;9744;49.364;7.484;2023-05-29T13:55:48;8.80;;;4.78;;
19219;SDS011;9744;49.364;7.484;2023-05-29T13:58:16;8.50;;;5.32;;
19219;SDS011;9744;49.364;7.484;2023-05-29T14:00:43;5.75;;;3.65;;
19219;SDS011;9744;49.364;7.484;2023-05-29T14:03:12;7.65;;;3.72;;
19219;SDS011;9744;49.364;7.484;2023-05-29T14:05:40;4.15;;;2.92;;
19219;SDS011;9744;49.364;7.484;2023-05-29T14:08:07;6.88;;;2.63;;
19219;SDS011;9744;49.364;7.484;2023-05-29T14:10:35;4.22;;;2.33;;
19219;SDS011;9744;49.364;7.484;2023-05-29T14:13:02;6.03;;;2.83;;
19219;SDS011;9744;49.364;7.484;2023-05-29T14:15:30;7.07;;;2.72;;
19219;SDS011;9744;49.364;7.484;2023-05-29T14:17:57;4.97;;;2.42;;
19219;SDS011;9744;49.364;7.484;2023-05-29T14:20:26;3.70;;;2.22;;
19219;SDS011;9744;49.364;7.484;2023-05-29T14:22:54;3.40;;;2.40;;
19219;SDS011;9744;49.364;7.484;2023-05-29T14:25:21;5.05;;;2.42;;
19219;SDS011;9744;49.364;7.484;2023-05-29T14:27:49;5.25;;;2.35;;
19219;SDS011;9744;49.364;7.484;2023-05-29T14:30:17;4.53;;;2.33;;
19219;SDS011;9744;49.364;7.484;2023-05-29T14:32:45;7.95;;;2.58;;
19219;SDS011;9744;49.364;7.484;2023-05-29T14:35:13;4.82;;;2.22;;
19219;SDS011;9744;49.364;7.484;2023-05-29T14:37:42;4.65;;;2.22;;
19219;SDS011;9744;49.364;7.484;2023-05-29T14:40:10;3.25;;;2.10;;
19219;SDS011;9744;49.364;7.484;2023-05-29T14:42:38;6.97;;;2.75;;
19219;SDS011;9744;49.364;7.484;2023-05-29T14:45:06;3.13;;;2.20;;
19219;SDS011;9744;49.364;7.484;2023-05-29T14:47:34;4.35;;;2.53;;
19219;SDS011;9744;49.364;7.484;2023-05-29T14:50:02;4.32;;;2.08;;
19219;SDS011;9744;49.364;7.484;2023-05-29T14:52:30;4.95;;;2.53;;
19219;SDS011;9744;49.364;7.484;2023-05-29T14:55:01;4.63;;;2.40;;
19219;SDS011;9744;49.364;7.484;2023-05-29T14:57:29;2.53;;;2.00;;
19219;SDS011;9744;49.364;7.484;2023-05-29T14:59:58;12.55;;;2.25;;
19219;SDS011;9744;49.364;7.484;2023-05-29T15:02:26;3.85;;;2.38;;
19219;SDS011;9744;49.364;7.484;2023-05-29T15:04:53;4.35;;;2.10;;
19219;SDS011;9744;49.364;7.484;2023-05-29T15:07:22;2.42;;;1.90;;
19219;SDS011;9744;49.364;7.484;2023-05-29T15:09:49;3.90;;;2.35;;
19219;SDS011;9744;49.364;7.484;2023-05-29T15:12:18;4.78;;;2.38;;
19219;SDS011;9744;49.364;7.484;2023-05-29T15:14:46;4.97;;;2.10;;
19219;SDS011;9744;49.364;7.484;2023-05-29T15:17:13;3.55;;;2.30;;
19219;SDS011;9744;49.364;7.484;2023-05-29T15:19:41;4.65;;;2.15;;
19219;SDS011;9744;49.364;7.484;2023-05-29T15:22:08;4.85;;;2.03;;
19219;SDS011;9744;49.364;7.484;2023-05-29T15:24:36;7.40;;;2.60;;
19219;SDS011;9744;49.364;7.484;2023-05-29T15:27:04;4.43;;;2.38;;
19219;SDS011;9744;49.364;7.484;2023-05-29T15:29:34;4.78;;;2.33;;